createdAt,value
2023-02-06T00:01:43.370Z,100.00
2023-02-06T00:04:12.153Z,100.00
2023-02-06T00:06:40.531Z,100.00
2023-02-06T00:09:09.105Z,100.00
2023-02-06T00:11:37.946Z,100.00
2023-02-06T00:14:07.173Z,100.00
2023-02-06T00:16:37.242Z,100.00
2023-02-06T00:19:05.924Z,100.00
2023-02-06T00:21:35.801Z,100.00
2023-02-06T00:24:04.812Z,100.00
2023-02-06T00:26:33.651Z,100.00
2023-02-06T00:29:05.001Z,100.00
2023-02-06T00:31:33.794Z,100.00
2023-02-06T00:34:04.412Z,100.00
2023-02-06T00:36:34.415Z,100.00
2023-02-06T00:39:03.204Z,100.00
2023-02-06T00:41:31.757Z,100.00
2023-02-06T00:44:00.061Z,100.00
2023-02-06T00:46:28.447Z,100.00
2023-02-06T00:48:56.794Z,100.00
2023-02-06T00:51:26.688Z,100.00
2023-02-06T00:53:54.935Z,100.00
2023-02-06T00:56:23.358Z,100.00
2023-02-06T00:58:52.099Z,100.00
2023-02-06T01:01:20.533Z,100.00
2023-02-06T01:03:48.811Z,100.00
2023-02-06T01:06:17.189Z,100.00
2023-02-06T01:08:47.321Z,100.00
2023-02-06T01:11:18.400Z,100.00
2023-02-06T01:13:46.838Z,100.00
2023-02-06T01:16:20.344Z,100.00
2023-02-06T01:18:50.223Z,100.00
2023-02-06T01:21:21.434Z,100.00
2023-02-06T01:23:53.848Z,100.00
2023-02-06T01:26:24.612Z,100.00
2023-02-06T01:28:53.019Z,100.00
2023-02-06T01:31:23.939Z,100.00
2023-02-06T01:33:52.964Z,100.00
2023-02-06T01:36:21.921Z,100.00
2023-02-06T01:38:52.816Z,100.00
2023-02-06T01:41:24.064Z,100.00
2023-02-06T01:44:10.689Z,100.00
2023-02-06T01:46:39.862Z,100.00
2023-02-06T01:49:11.296Z,100.00
2023-02-06T01:51:40.981Z,100.00
2023-02-06T01:54:11.607Z,100.00
2023-02-06T01:56:44.533Z,100.00
2023-02-06T01:59:13.699Z,100.00
2023-02-06T02:01:42.818Z,100.00
2023-02-06T02:04:17.458Z,100.00
2023-02-06T02:06:50.757Z,100.00
2023-02-06T02:09:21.668Z,100.00
2023-02-06T02:11:49.931Z,100.00
2023-02-06T02:14:18.768Z,100.00
2023-02-06T02:17:02.382Z,100.00
2023-02-06T02:20:06.445Z,100.00
2023-02-06T02:22:52.671Z,100.00
2023-02-06T02:25:58.290Z,100.00
2023-02-06T02:29:04.309Z,100.00
2023-02-06T02:31:57.519Z,100.00
2023-02-06T02:34:55.395Z,100.00
2023-02-06T02:37:33.477Z,100.00
2023-02-06T02:40:11.866Z,100.00
2023-02-06T02:42:48.862Z,100.00
2023-02-06T02:45:22.427Z,100.00
2023-02-06T02:47:57.544Z,100.00
2023-02-06T02:50:29.004Z,100.00
2023-02-06T02:52:59.582Z,100.00
2023-02-06T02:55:27.915Z,100.00
2023-02-06T02:58:06.530Z,100.00
2023-02-06T03:00:41.255Z,100.00
2023-02-06T03:03:11.931Z,100.00
2023-02-06T03:06:03.950Z,100.00
2023-02-06T03:08:43.592Z,100.00
2023-02-06T03:11:14.991Z,100.00
2023-02-06T03:13:50.168Z,100.00
2023-02-06T03:16:23.641Z,100.00
2023-02-06T03:18:58.393Z,100.00
2023-02-06T03:21:30.319Z,100.00
2023-02-06T03:24:04.428Z,100.00
2023-02-06T03:26:33.749Z,100.00
2023-02-06T03:29:05.444Z,100.00
2023-02-06T03:31:37.337Z,100.00
2023-02-06T03:34:13.673Z,100.00
2023-02-06T03:36:44.106Z,100.00
2023-02-06T03:39:13.068Z,100.00
2023-02-06T03:41:42.981Z,100.00
2023-02-06T03:44:17.561Z,100.00
2023-02-06T03:46:47.374Z,100.00
2023-02-06T03:49:18.674Z,100.00
2023-02-06T03:51:52.927Z,100.00
2023-02-06T03:54:24.725Z,100.00
2023-02-06T03:56:54.983Z,100.00
2023-02-06T03:59:23.452Z,100.00
2023-02-06T04:01:55.181Z,100.00
2023-02-06T04:04:29.301Z,100.00
2023-02-06T04:07:01.873Z,100.00
2023-02-06T04:09:30.176Z,100.00
2023-02-06T04:11:58.421Z,100.00
2023-02-06T04:14:26.818Z,100.00
2023-02-06T04:16:56.404Z,100.00
2023-02-06T04:19:24.895Z,100.00
2023-02-06T04:21:53.350Z,100.00
2023-02-06T04:24:23.111Z,100.00
2023-02-06T04:26:51.764Z,100.00
2023-02-06T04:29:20.251Z,100.00
2023-02-06T04:31:48.778Z,100.00
2023-02-06T04:34:17.048Z,100.00
2023-02-06T04:36:45.729Z,100.00
2023-02-06T04:39:14.272Z,100.00
2023-02-06T04:41:44.673Z,100.00
2023-02-06T04:44:13.106Z,100.00
2023-02-06T04:46:43.316Z,100.00
2023-02-06T04:49:11.722Z,100.00
2023-02-06T04:51:40.123Z,100.00
2023-02-06T04:54:08.843Z,100.00
2023-02-06T04:56:37.099Z,100.00
2023-02-06T04:59:07.166Z,100.00
2023-02-06T05:01:36.660Z,100.00
2023-02-06T05:04:05.577Z,100.00
2023-02-06T05:06:34.039Z,100.00
2023-02-06T05:09:04.061Z,100.00
2023-02-06T05:11:32.581Z,100.00
2023-02-06T05:14:00.754Z,100.00
2023-02-06T05:16:30.565Z,100.00
2023-02-06T05:18:58.926Z,100.00
2023-02-06T05:21:28.697Z,100.00
2023-02-06T05:23:57.247Z,100.00
2023-02-06T05:26:25.480Z,100.00
2023-02-06T05:28:54.114Z,100.00
2023-02-06T05:31:22.689Z,100.00
2023-02-06T05:33:52.988Z,100.00
2023-02-06T05:36:22.317Z,100.00
2023-02-06T05:38:50.881Z,100.00
2023-02-06T05:41:19.947Z,100.00
2023-02-06T05:43:48.444Z,100.00
2023-02-06T05:46:16.935Z,100.00
2023-02-06T05:48:45.256Z,100.00
2023-02-06T05:51:16.060Z,100.00
2023-02-06T05:53:44.959Z,100.00
2023-02-06T05:56:13.314Z,100.00
2023-02-06T05:58:41.526Z,100.00
2023-02-06T06:01:11.386Z,100.00
2023-02-06T06:03:39.692Z,100.00
2023-02-06T06:06:09.283Z,100.00
2023-02-06T06:08:38.980Z,100.00
2023-02-06T06:11:08.214Z,100.00
2023-02-06T06:13:36.748Z,100.00
2023-02-06T06:16:06.538Z,100.00
2023-02-06T06:18:34.878Z,100.00
2023-02-06T06:21:03.397Z,100.00
2023-02-06T06:23:31.676Z,100.00
2023-02-06T06:26:01.772Z,100.00
2023-02-06T06:28:30.188Z,100.00
2023-02-06T06:31:02.802Z,100.00
2023-02-06T06:33:31.595Z,100.00
2023-02-06T06:36:00.334Z,100.00
2023-02-06T06:38:28.488Z,100.00
2023-02-06T06:40:57.008Z,100.00
2023-02-06T06:43:28.698Z,100.00
2023-02-06T06:45:57.285Z,100.00
2023-02-06T06:48:25.854Z,100.00
2023-02-06T06:50:54.172Z,100.00
2023-02-06T06:53:23.017Z,100.00
2023-02-06T06:55:51.586Z,100.00
2023-02-06T06:58:20.033Z,100.00
2023-02-06T07:00:50.062Z,100.00
2023-02-06T07:03:18.958Z,100.00
2023-02-06T07:05:47.514Z,100.00
2023-02-06T07:08:15.925Z,100.00
2023-02-06T07:10:46.835Z,100.00
2023-02-06T07:13:15.698Z,100.00
2023-02-06T07:15:44.588Z,100.00
2023-02-06T07:18:14.358Z,100.00
2023-02-06T07:20:43.169Z,100.00
2023-02-06T07:23:11.469Z,100.00
2023-02-06T07:25:39.730Z,100.00
2023-02-06T07:28:08.272Z,100.00
2023-02-06T07:30:37.074Z,100.00
2023-02-06T07:33:06.793Z,100.00
2023-02-06T07:35:36.969Z,100.00
2023-02-06T07:38:05.585Z,100.00
2023-02-06T07:40:44.812Z,100.00
2023-02-06T07:43:14.420Z,100.00
2023-02-06T07:45:43.255Z,100.00
2023-02-06T07:48:11.942Z,100.00
2023-02-06T07:50:41.632Z,100.00
2023-02-06T07:53:10.430Z,100.00
2023-02-06T07:55:39.404Z,100.00
2023-02-06T07:58:07.985Z,100.00
2023-02-06T08:00:36.824Z,100.00
2023-02-06T08:03:05.901Z,100.00
2023-02-06T08:05:35.594Z,100.00
2023-02-06T08:08:05.734Z,100.00
2023-02-06T08:10:34.269Z,100.00
2023-02-06T08:13:02.501Z,100.00
2023-02-06T08:15:30.920Z,100.00
2023-02-06T08:17:59.206Z,100.00
2023-02-06T08:20:27.977Z,100.00
2023-02-06T08:22:57.109Z,100.00
2023-02-06T08:25:27.685Z,100.00
2023-02-06T08:27:56.889Z,100.00
2023-02-06T08:30:25.971Z,100.00
2023-02-06T08:32:54.515Z,100.00
2023-02-06T08:35:22.964Z,100.00
2023-02-06T08:37:51.409Z,100.00
2023-02-06T08:40:21.371Z,100.00
2023-02-06T08:42:52.515Z,100.00
2023-02-06T08:45:21.119Z,100.00
2023-02-06T08:47:49.691Z,100.00
2023-02-06T08:50:18.145Z,100.00
2023-02-06T08:52:46.659Z,100.00
2023-02-06T08:55:15.155Z,100.00
2023-02-06T08:57:43.707Z,100.00
2023-02-06T09:00:15.320Z,100.00
2023-02-06T09:02:43.872Z,100.00
2023-02-06T09:05:12.891Z,100.00
2023-02-06T09:07:43.747Z,100.00
2023-02-06T09:10:26.706Z,100.00
2023-02-06T09:12:55.873Z,100.00
2023-02-06T09:15:25.977Z,100.00
2023-02-06T09:17:54.429Z,100.00
2023-02-06T09:20:22.817Z,100.00
2023-02-06T09:22:51.080Z,100.00
2023-02-06T09:25:19.946Z,100.00
2023-02-06T09:27:48.324Z,100.00
2023-02-06T09:30:17.223Z,100.00
2023-02-06T09:32:47.128Z,100.00
2023-02-06T09:35:15.709Z,100.00
2023-02-06T09:37:44.278Z,100.00
2023-02-06T09:40:15.786Z,100.00
2023-02-06T09:42:44.897Z,100.00
2023-02-06T09:45:16.461Z,100.00
2023-02-06T09:47:49.415Z,100.00
2023-02-06T09:50:25.272Z,100.00
2023-02-06T09:53:04.748Z,100.00
2023-02-06T09:55:40.068Z,100.00
2023-02-06T09:58:19.372Z,99.62
2023-02-06T10:00:54.736Z,99.15
2023-02-06T10:03:48.071Z,99.38
2023-02-06T10:06:21.095Z,100.00
2023-02-06T10:08:59.053Z,100.00
2023-02-06T10:11:39.058Z,100.00
2023-02-06T10:14:12.453Z,100.00
2023-02-06T10:16:45.584Z,100.00
2023-02-06T10:19:23.590Z,100.00
2023-02-06T10:21:57.614Z,100.00
2023-02-06T10:24:35.464Z,100.00
2023-02-06T10:27:10.358Z,100.00
2023-02-06T10:29:40.558Z,100.00
2023-02-06T10:32:24.758Z,100.00
2023-02-06T10:35:25.986Z,100.00
2023-02-06T10:38:10.261Z,100.00
2023-02-06T10:40:48.798Z,100.00
2023-02-06T10:43:26.257Z,100.00
2023-02-06T10:46:08.194Z,100.00
2023-02-06T10:48:39.817Z,100.00
2023-02-06T10:51:19.780Z,100.00
2023-02-06T10:53:53.110Z,100.00
2023-02-06T10:56:26.750Z,100.00
2023-02-06T10:58:59.688Z,100.00
2023-02-06T11:01:33.211Z,100.00
2023-02-06T11:04:06.830Z,100.00
2023-02-06T11:06:37.381Z,100.00
2023-02-06T11:09:05.793Z,99.67
2023-02-06T11:11:40.171Z,100.00
2023-02-06T11:14:15.590Z,100.00
2023-02-06T11:16:46.525Z,100.00
2023-02-06T11:19:21.322Z,100.00
2023-02-06T11:22:08.625Z,100.00
2023-02-06T11:24:38.416Z,100.00
2023-02-06T11:27:16.052Z,100.00
2023-02-06T11:29:48.053Z,100.00
2023-02-06T11:32:31.190Z,97.23
2023-02-06T11:35:02.858Z,94.04
2023-02-06T11:37:36.570Z,93.91
2023-02-06T11:40:27.397Z,96.45
2023-02-06T11:43:16.019Z,100.00
2023-02-06T11:45:45.603Z,100.00
2023-02-06T11:48:36.513Z,100.00
2023-02-06T11:51:05.999Z,89.79
2023-02-06T11:53:36.620Z,85.70
2023-02-06T11:56:08.258Z,89.61
2023-02-06T11:58:37.229Z,92.94
2023-02-06T12:01:09.708Z,97.10
2023-02-06T12:03:46.368Z,97.66
2023-02-06T12:06:18.794Z,96.18
2023-02-06T12:08:51.594Z,100.00
2023-02-06T12:11:25.166Z,99.82
2023-02-06T12:13:57.305Z,100.00
2023-02-06T12:16:26.297Z,100.00
2023-02-06T12:18:58.417Z,100.00
2023-02-06T12:21:35.417Z,95.63
2023-02-06T12:24:15.188Z,92.32
2023-02-06T12:26:44.571Z,84.55
2023-02-06T12:29:20.762Z,80.35
2023-02-06T12:31:54.269Z,78.14
2023-02-06T12:34:28.157Z,82.79
2023-02-06T12:37:11.029Z,88.22
2023-02-06T12:39:43.099Z,87.64
2023-02-06T12:42:33.884Z,83.02
2023-02-06T12:45:09.016Z,83.02
2023-02-06T12:47:43.473Z,83.98
2023-02-06T12:50:16.960Z,88.95
2023-02-06T12:52:50.709Z,93.11
2023-02-06T12:55:25.032Z,91.05
2023-02-06T12:57:55.141Z,92.92
2023-02-06T13:01:02.123Z,90.57
2023-02-06T13:03:34.438Z,94.60
2023-02-06T13:06:13.203Z,95.71
2023-02-06T13:08:46.324Z,94.69
2023-02-06T13:11:28.975Z,95.09
2023-02-06T13:14:04.831Z,95.75
2023-02-06T13:16:44.088Z,96.83
2023-02-06T13:19:32.998Z,96.76
2023-02-06T13:22:32.421Z,95.72
2023-02-06T13:25:23.121Z,97.83
2023-02-06T13:27:53.257Z,97.14
2023-02-06T13:30:50.168Z,96.38
2023-02-06T13:33:21.246Z,97.16
2023-02-06T13:35:57.814Z,96.17
2023-02-06T13:38:30.566Z,95.75
2023-02-06T13:41:17.095Z,91.06
2023-02-06T13:43:50.794Z,94.53
2023-02-06T13:46:23.017Z,93.90
2023-02-06T13:49:11.972Z,90.72
2023-02-06T13:52:05.139Z,91.31
2023-02-06T13:55:13.663Z,91.16
2023-02-06T13:57:55.915Z,92.88
2023-02-06T14:00:30.368Z,93.25
2023-02-06T14:03:07.195Z,93.82
2023-02-06T14:05:49.706Z,92.61
2023-02-06T14:08:25.040Z,93.55
2023-02-06T14:11:28.757Z,91.88
2023-02-06T14:14:24.914Z,92.20
2023-02-06T14:17:06.248Z,92.93
2023-02-06T14:19:42.700Z,93.28
2023-02-06T14:22:23.243Z,94.43
2023-02-06T14:25:06.606Z,94.91
2023-02-06T14:27:51.846Z,95.79
2023-02-06T14:30:30.857Z,95.61
2023-02-06T14:33:12.225Z,95.52
2023-02-06T14:35:54.713Z,96.06
2023-02-06T14:38:41.142Z,96.17
2023-02-06T14:41:09.969Z,96.92
2023-02-06T14:43:42.049Z,97.03
2023-02-06T14:46:16.726Z,97.24
2023-02-06T14:48:50.451Z,97.98
2023-02-06T14:51:28.540Z,97.95
2023-02-06T14:53:59.111Z,98.38
2023-02-06T14:56:31.588Z,98.69
2023-02-06T14:59:15.482Z,98.94
2023-02-06T15:01:47.971Z,99.52
2023-02-06T15:04:21.987Z,99.97
2023-02-06T15:06:55.738Z,100.00
2023-02-06T15:09:27.922Z,100.00
2023-02-06T15:11:59.182Z,100.00
2023-02-06T15:14:30.103Z,100.00
2023-02-06T15:17:00.275Z,100.00
2023-02-06T15:19:31.443Z,100.00
2023-02-06T15:22:02.772Z,100.00
2023-02-06T15:25:05.774Z,100.00
2023-02-06T15:27:36.621Z,100.00
2023-02-06T15:30:21.748Z,100.00
2023-02-06T15:32:53.220Z,100.00
2023-02-06T15:35:25.585Z,100.00
2023-02-06T15:37:55.677Z,100.00
2023-02-06T15:40:29.892Z,100.00
2023-02-06T15:42:59.986Z,100.00
2023-02-06T15:45:32.192Z,100.00
2023-02-06T15:48:11.590Z,100.00
2023-02-06T15:50:41.371Z,100.00
2023-02-06T15:53:19.543Z,100.00
2023-02-06T15:55:56.529Z,100.00
2023-02-06T15:58:26.064Z,100.00
2023-02-06T16:00:56.764Z,100.00
2023-02-06T16:03:28.358Z,100.00
2023-02-06T16:05:59.518Z,100.00
2023-02-06T16:08:32.143Z,100.00
2023-02-06T16:11:04.132Z,100.00
2023-02-06T16:13:33.596Z,100.00
2023-02-06T16:16:05.086Z,100.00
2023-02-06T16:18:34.563Z,100.00
2023-02-06T16:21:21.450Z,100.00
2023-02-06T16:23:53.202Z,100.00
2023-02-06T16:26:24.106Z,100.00
2023-02-06T16:28:59.314Z,100.00
2023-02-06T16:31:29.643Z,100.00
2023-02-06T16:34:03.456Z,100.00
2023-02-06T16:36:34.350Z,100.00
2023-02-06T16:39:04.667Z,100.00
2023-02-06T16:41:37.627Z,100.00
2023-02-06T16:44:15.202Z,100.00
2023-02-06T16:46:44.230Z,100.00
2023-02-06T16:49:14.446Z,100.00
2023-02-06T16:51:47.904Z,100.00
2023-02-06T16:54:29.107Z,100.00
2023-02-06T16:57:02.674Z,100.00
2023-02-06T16:59:31.026Z,100.00
2023-02-06T17:01:59.397Z,100.00
2023-02-06T17:04:27.820Z,100.00
2023-02-06T17:06:58.202Z,100.00
2023-02-06T17:09:26.542Z,100.00
2023-02-06T17:11:55.164Z,100.00
2023-02-06T17:14:23.959Z,100.00
2023-02-06T17:16:52.489Z,100.00
2023-02-06T17:19:22.256Z,100.00
2023-02-06T17:21:50.579Z,100.00
2023-02-06T17:24:20.087Z,100.00
2023-02-06T17:26:48.515Z,100.00
2023-02-06T17:29:17.097Z,100.00
2023-02-06T17:31:45.965Z,100.00
2023-02-06T17:34:14.512Z,100.00
2023-02-06T17:36:43.379Z,100.00
2023-02-06T17:39:13.335Z,100.00
2023-02-06T17:41:42.876Z,100.00
2023-02-06T17:44:11.790Z,100.00
2023-02-06T17:46:40.674Z,100.00
2023-02-06T17:49:09.068Z,100.00
2023-02-06T17:51:37.453Z,100.00
2023-02-06T17:54:06.600Z,100.00
2023-02-06T17:56:35.484Z,100.00
2023-02-06T17:59:05.546Z,100.00
2023-02-06T18:01:34.467Z,100.00
2023-02-06T18:04:04.380Z,100.00
2023-02-06T18:06:34.950Z,100.00
2023-02-06T18:09:04.056Z,100.00
2023-02-06T18:11:32.602Z,100.00
2023-02-06T18:14:00.963Z,100.00
2023-02-06T18:16:30.893Z,100.00
2023-02-06T18:19:02.559Z,100.00
2023-02-06T18:21:31.682Z,100.00
2023-02-06T18:24:00.215Z,100.00
2023-02-06T18:26:28.755Z,100.00
2023-02-06T18:28:57.223Z,100.00
2023-02-06T18:31:28.610Z,100.00
2023-02-06T18:33:58.921Z,100.00
2023-02-06T18:36:28.376Z,100.00
2023-02-06T18:38:57.671Z,100.00
2023-02-06T18:41:43.392Z,100.00
2023-02-06T18:44:12.527Z,100.00
2023-02-06T18:46:40.976Z,100.00
2023-02-06T18:49:10.738Z,100.00
2023-02-06T18:51:39.080Z,100.00
2023-02-06T18:54:10.023Z,100.00
2023-02-06T18:56:39.052Z,100.00
2023-02-06T18:59:07.808Z,100.00
2023-02-06T19:01:36.500Z,100.00
2023-02-06T19:04:06.447Z,100.00
2023-02-06T19:06:37.863Z,100.00
2023-02-06T19:09:08.089Z,100.00
2023-02-06T19:11:37.516Z,100.00
2023-02-06T19:14:07.836Z,100.00
2023-02-06T19:16:38.563Z,100.00
2023-02-06T19:19:07.917Z,100.00
2023-02-06T19:21:38.047Z,100.00
2023-02-06T19:24:07.504Z,100.00
2023-02-06T19:26:35.902Z,100.00
2023-02-06T19:29:05.121Z,100.00
2023-02-06T19:31:33.355Z,100.00
2023-02-06T19:34:02.434Z,100.00
2023-02-06T19:36:31.969Z,100.00
2023-02-06T19:39:03.680Z,100.00
2023-02-06T19:41:34.757Z,100.00
2023-02-06T19:44:06.248Z,100.00
2023-02-06T19:46:35.642Z,100.00
2023-02-06T19:49:05.769Z,100.00
2023-02-06T19:51:38.209Z,100.00
2023-02-06T19:54:08.577Z,100.00
2023-02-06T19:56:40.834Z,100.00
2023-02-06T19:59:18.209Z,100.00
2023-02-06T20:01:47.818Z,100.00
2023-02-06T20:04:17.094Z,100.00
2023-02-06T20:06:45.640Z,100.00
2023-02-06T20:09:16.959Z,100.00
2023-02-06T20:11:46.310Z,100.00
2023-02-06T20:14:14.766Z,100.00
2023-02-06T20:16:44.206Z,100.00
2023-02-06T20:19:15.654Z,100.00
2023-02-06T20:21:46.298Z,100.00
2023-02-06T20:24:20.928Z,100.00
2023-02-06T20:26:51.121Z,100.00
2023-02-06T20:29:21.947Z,100.00
2023-02-06T20:31:51.325Z,100.00
2023-02-06T20:34:20.405Z,100.00
2023-02-06T20:36:49.515Z,100.00
2023-02-06T20:39:19.677Z,100.00
2023-02-06T20:41:49.693Z,100.00
2023-02-06T20:44:19.413Z,100.00
2023-02-06T20:46:48.055Z,100.00
2023-02-06T20:49:19.799Z,100.00
2023-02-06T20:51:49.963Z,100.00
2023-02-06T20:54:21.032Z,100.00
2023-02-06T20:56:49.838Z,100.00
2023-02-06T20:59:20.377Z,100.00
2023-02-06T21:01:48.953Z,100.00
2023-02-06T21:04:18.250Z,100.00
2023-02-06T21:06:48.047Z,100.00
2023-02-06T21:09:17.245Z,100.00
2023-02-06T21:11:50.230Z,100.00
2023-02-06T21:14:19.415Z,100.00
2023-02-06T21:16:48.427Z,100.00
2023-02-06T21:19:19.609Z,100.00
2023-02-06T21:21:48.455Z,100.00
2023-02-06T21:24:18.169Z,100.00
2023-02-06T21:26:48.483Z,100.00
2023-02-06T21:29:17.590Z,100.00
2023-02-06T21:31:46.701Z,100.00
2023-02-06T21:34:17.912Z,100.00
2023-02-06T21:36:47.429Z,100.00
2023-02-06T21:39:18.454Z,100.00
2023-02-06T21:41:51.885Z,100.00
2023-02-06T21:44:20.799Z,100.00
2023-02-06T21:46:49.275Z,100.00
2023-02-06T21:49:17.563Z,100.00
2023-02-06T21:51:46.189Z,100.00
2023-02-06T21:54:14.494Z,100.00
2023-02-06T21:56:43.307Z,100.00
2023-02-06T21:59:14.100Z,100.00
2023-02-06T22:01:42.805Z,100.00
2023-02-06T22:04:12.592Z,100.00
2023-02-06T22:06:41.377Z,100.00
2023-02-06T22:09:15.331Z,100.00
2023-02-06T22:11:45.132Z,100.00
2023-02-06T22:14:17.932Z,100.00
2023-02-06T22:16:47.315Z,100.00
2023-02-06T22:19:17.336Z,100.00
2023-02-06T22:21:46.163Z,100.00
2023-02-06T22:24:14.993Z,100.00
2023-02-06T22:26:43.903Z,100.00
2023-02-06T22:29:16.279Z,100.00
2023-02-06T22:31:45.835Z,100.00
2023-02-06T22:34:17.917Z,100.00
2023-02-06T22:36:46.970Z,100.00
2023-02-06T22:39:16.978Z,100.00
2023-02-06T22:41:46.916Z,100.00
2023-02-06T22:44:17.937Z,100.00
2023-02-06T22:46:48.525Z,100.00
2023-02-06T22:49:17.348Z,100.00
2023-02-06T22:51:46.393Z,100.00
2023-02-06T22:54:15.819Z,100.00
2023-02-06T22:56:44.904Z,100.00
2023-02-06T22:59:18.000Z,100.00
2023-02-06T23:01:48.132Z,100.00
2023-02-06T23:04:18.329Z,100.00
2023-02-06T23:06:47.236Z,100.00
2023-02-06T23:09:18.076Z,100.00
2023-02-06T23:11:47.091Z,100.00
2023-02-06T23:14:18.773Z,100.00
2023-02-06T23:16:48.553Z,100.00
2023-02-06T23:19:18.789Z,100.00
2023-02-06T23:21:49.158Z,100.00
2023-02-06T23:24:17.580Z,100.00
2023-02-06T23:26:48.205Z,100.00
2023-02-06T23:29:19.169Z,100.00
2023-02-06T23:31:48.690Z,100.00
2023-02-06T23:34:18.500Z,100.00
2023-02-06T23:36:47.327Z,100.00
2023-02-06T23:39:15.558Z,100.00
2023-02-06T23:41:43.916Z,100.00
2023-02-06T23:44:12.788Z,100.00
2023-02-06T23:46:42.662Z,100.00
2023-02-06T23:49:11.223Z,100.00
2023-02-06T23:51:39.764Z,100.00
2023-02-06T23:54:09.406Z,100.00
2023-02-06T23:56:38.496Z,100.00
2023-02-06T23:59:07.810Z,100.00
